CheckWX is a tool to help pilots better visualize weather data.  It is not intended as a substitute for an official pre-flight weather briefing.

18:11:59 UTC

KAGC METAR
Allegheny County Airport
Pittsburgh, Pennsylvania, USA
Current

19 mins ago

KAGC 171753Z 09009KT 10SM CLR 08/M03 A3006 RMK AO2 SLP193 T00781028 10078 21017 58028
Observed
Nov-17 @ 17:53 UTC
Wind
  • 090° at 9 KTS
Visibility
10 SM
Flight Rules
VFR
Cloud Levels
  • Clear skies
Temperature
C / 46°F
Dewpoint
-3°C / 27°F
Humidity
46%
Altimeter
30.06" Hg
Pressure
1017.92 hPa
Previous

1 hour ago

KAGC 171653Z 11007KT 10SM CLR 06/M03 A3009 RMK AO2 SLP203 T00611033
Observed
Nov-17 @ 16:53 UTC
Wind
  • 110° at 7 KTS
Visibility
10 SM
Flight Rules
VFR
Cloud Levels
  • Clear skies
Temperature
C / 43°F
Dewpoint
-3°C / 27°F
Humidity
53%
Altimeter
30.09" Hg
Pressure
1018.92 hPa
Previous

2 hours ago

KAGC 171553Z 12009KT 10SM CLR 05/M04 A3012 RMK AO2 SLP216 T00501039
Observed
Nov-17 @ 15:53 UTC
Wind
  • 120° at 9 KTS
Visibility
10 SM
Flight Rules
VFR
Cloud Levels
  • Clear skies
Temperature
C / 41°F
Dewpoint
-4°C / 25°F
Humidity
53%
Altimeter
30.12" Hg
Pressure
1020.02 hPa